createdAt,value
2022-11-29T00:01:29.221Z,101514.41
2022-11-29T00:03:55.983Z,101511.56
2022-11-29T00:06:28.343Z,101507.75
2022-11-29T00:08:56.803Z,101508.03
2022-11-29T00:11:49.183Z,101508.81
2022-11-29T00:14:18.075Z,101503.72
2022-11-29T00:16:44.696Z,101512.38
2022-11-29T00:19:13.280Z,101514.91
2022-11-29T00:21:39.718Z,101505.81
2022-11-29T00:24:06.871Z,101505.81
2022-11-29T00:26:33.375Z,101504.06
2022-11-29T00:28:59.812Z,101511.25
2022-11-29T00:31:31.265Z,101510.75
2022-11-29T00:33:59.005Z,101521.91
2022-11-29T00:36:26.145Z,101514.09
2022-11-29T00:38:52.898Z,101514.91
2022-11-29T00:41:19.964Z,101508.53
2022-11-29T00:43:46.512Z,101516.81
2022-11-29T00:46:13.023Z,101512.38
2022-11-29T00:48:39.561Z,101513.16
2022-11-29T00:51:06.760Z,101509.34
2022-11-29T00:53:34.560Z,101505.84
2022-11-29T00:56:02.347Z,101508.22
2022-11-29T00:58:29.323Z,101513.31
2022-11-29T01:00:56.384Z,101506.78
2022-11-29T01:03:23.467Z,101508.22
2022-11-29T01:05:50.202Z,101512.84
2022-11-29T01:08:17.315Z,101516.00
2022-11-29T01:10:44.197Z,101516.66
2022-11-29T01:13:11.015Z,101518.06
2022-11-29T01:15:38.264Z,101519.84
2022-11-29T01:18:05.007Z,101529.69
2022-11-29T01:20:31.402Z,101527.16
2022-11-29T01:22:58.599Z,101531.13
2022-11-29T01:25:25.260Z,101532.09
2022-11-29T01:27:51.701Z,101536.72
2022-11-29T01:30:18.122Z,101535.59
2022-11-29T01:32:44.555Z,101537.81
2022-11-29T01:35:10.960Z,101541.66
2022-11-29T01:37:37.410Z,101543.56
2022-11-29T01:40:04.374Z,101543.72
2022-11-29T01:42:30.833Z,101545.94
2022-11-29T01:45:19.957Z,101552.97
2022-11-29T01:47:48.019Z,101555.50
2022-11-29T01:50:14.729Z,101550.41
2022-11-29T01:52:41.884Z,101543.88
2022-11-29T01:55:10.012Z,101550.56
2022-11-29T01:57:39.805Z,101549.13
2022-11-29T02:00:13.007Z,101560.59
2022-11-29T02:02:47.037Z,101552.47
2022-11-29T02:05:16.782Z,101555.34
2022-11-29T02:07:45.763Z,101557.88
2022-11-29T02:10:12.515Z,101552.97
2022-11-29T02:12:44.542Z,101555.81
2022-11-29T02:15:38.354Z,101554.72
2022-11-29T02:18:28.324Z,101559.78
2022-11-29T02:21:08.784Z,101565.06
2022-11-29T02:24:02.272Z,101566.97
2022-11-29T02:26:53.480Z,101556.47
2022-11-29T02:30:01.873Z,101564.06
2022-11-29T02:32:46.555Z,101561.88
2022-11-29T02:35:25.191Z,101562.81
2022-11-29T02:38:06.612Z,101559.97
2022-11-29T02:40:42.085Z,101563.78
2022-11-29T02:43:53.319Z,101573.81
2022-11-29T02:46:25.760Z,101572.03
2022-11-29T02:49:02.998Z,101572.84
2022-11-29T02:52:01.876Z,101569.97
2022-11-29T02:54:50.228Z,101571.56
2022-11-29T02:57:24.709Z,101574.28
2022-11-29T03:00:03.827Z,101582.53
2022-11-29T03:02:42.734Z,101585.91
2022-11-29T03:05:49.757Z,101587.00
2022-11-29T03:08:40.764Z,101588.75
2022-11-29T03:11:32.183Z,101588.59
2022-11-29T03:14:10.798Z,101603.09
2022-11-29T03:16:51.280Z,101601.50
2022-11-29T03:19:23.812Z,101604.66
2022-11-29T03:22:02.135Z,101606.75
2022-11-29T03:25:14.756Z,101606.28
2022-11-29T03:27:47.553Z,101603.56
2022-11-29T03:30:17.328Z,101601.34
2022-11-29T03:33:03.467Z,101610.41
2022-11-29T03:35:40.870Z,101610.09
2022-11-29T03:38:25.920Z,101608.69
2022-11-29T03:41:13.733Z,101616.81
2022-11-29T03:44:12.779Z,101622.22
2022-11-29T03:47:00.939Z,101630.66
2022-11-29T03:49:56.480Z,101624.13
2022-11-29T03:52:33.935Z,101631.13
2022-11-29T03:55:12.487Z,101625.72
2022-11-29T03:58:13.145Z,101623.47
2022-11-29T04:01:20.493Z,101626.94
2022-11-29T04:04:23.780Z,101639.03
2022-11-29T04:07:11.497Z,101643.53
2022-11-29T04:10:09.267Z,101649.88
2022-11-29T04:13:01.674Z,101646.06
2022-11-29T04:16:02.923Z,101643.38
2022-11-29T04:19:09.503Z,101645.91
2022-11-29T04:21:45.003Z,101649.59
2022-11-29T04:24:11.482Z,101655.28
2022-11-29T04:27:09.025Z,101662.47
2022-11-29T04:30:18.533Z,101650.19
2022-11-29T04:33:25.887Z,101651.31
2022-11-29T04:36:07.690Z,101649.25
2022-11-29T04:38:49.448Z,101654.47
2022-11-29T04:41:47.104Z,101659.09
2022-11-29T04:44:25.191Z,101657.97
2022-11-29T04:47:21.973Z,101663.22
2022-11-29T04:49:54.035Z,101671.34
2022-11-29T04:52:52.309Z,101673.09
2022-11-29T04:55:38.172Z,101673.53
2022-11-29T04:58:07.279Z,101674.97
2022-11-29T05:00:45.075Z,101685.84
2022-11-29T05:03:23.340Z,101688.03
2022-11-29T05:06:03.164Z,101681.69
2022-11-29T05:08:41.484Z,101684.72
2022-11-29T05:11:45.945Z,101689.78
2022-11-29T05:14:49.970Z,101707.59
2022-11-29T05:17:26.572Z,101710.00
2022-11-29T05:20:23.100Z,101704.25
2022-11-29T05:22:52.222Z,101707.97
2022-11-29T05:25:35.278Z,101720.84
2022-11-29T05:28:15.172Z,101719.56
2022-11-29T05:31:07.387Z,101713.97
2022-11-29T05:33:45.685Z,101718.78
2022-11-29T05:36:21.893Z,101726.56
2022-11-29T05:39:11.377Z,101727.22
2022-11-29T05:42:06.312Z,101732.44
2022-11-29T05:44:47.651Z,101733.41
2022-11-29T05:47:46.714Z,101744.03
2022-11-29T05:50:26.584Z,101735.13
2022-11-29T05:53:29.468Z,101743.72
2022-11-29T05:56:14.115Z,101739.44
2022-11-29T05:58:49.695Z,101734.19
2022-11-29T06:01:26.083Z,101731.81
2022-11-29T06:04:17.760Z,101745.69
2022-11-29T06:07:12.312Z,101746.47
2022-11-29T06:09:48.180Z,101738.84
2022-11-29T06:12:23.514Z,101746.91
2022-11-29T06:15:01.837Z,101760.44
2022-11-29T06:17:48.687Z,101761.59
2022-11-29T06:20:24.115Z,101762.88
2022-11-29T06:23:18.577Z,101766.81
2022-11-29T06:26:29.117Z,101776.88
2022-11-29T06:29:14.388Z,101779.25
2022-11-29T06:31:46.359Z,101783.72
2022-11-29T06:34:36.832Z,101790.53
2022-11-29T06:37:19.846Z,101785.56
2022-11-29T06:39:46.532Z,101787.34
2022-11-29T06:42:12.949Z,101788.75
2022-11-29T06:44:39.876Z,101806.22
2022-11-29T06:47:20.197Z,101798.91
2022-11-29T06:49:50.994Z,101799.84
2022-11-29T06:52:28.504Z,101803.47
2022-11-29T06:54:57.764Z,101802.19
2022-11-29T06:57:33.276Z,101800.91
2022-11-29T07:00:13.020Z,101803.41
2022-11-29T07:02:54.470Z,101807.69
2022-11-29T07:05:25.942Z,101810.91
2022-11-29T07:07:55.656Z,101813.16
2022-11-29T07:10:23.641Z,101811.56
2022-11-29T07:12:51.119Z,101812.69
2022-11-29T07:15:20.666Z,101823.19
2022-11-29T07:18:16.300Z,101825.09
2022-11-29T07:21:08.688Z,101833.34
2022-11-29T07:23:45.416Z,101836.47
2022-11-29T07:26:59.271Z,101852.22
2022-11-29T07:30:05.068Z,101861.50
2022-11-29T07:32:47.290Z,101859.09
2022-11-29T07:35:24.527Z,101864.16
2022-11-29T07:38:10.329Z,101873.16
2022-11-29T07:41:02.954Z,101875.69
2022-11-29T07:44:11.025Z,101878.56
2022-11-29T07:46:37.514Z,101884.06
2022-11-29T07:49:04.061Z,101871.97
2022-11-29T07:51:31.366Z,101884.91
2022-11-29T07:53:57.872Z,101877.84
2022-11-29T07:56:24.323Z,101884.03
2022-11-29T07:58:50.793Z,101886.25
2022-11-29T08:01:17.320Z,101891.06
2022-11-29T08:03:43.897Z,101883.97
2022-11-29T08:06:10.516Z,101890.97
2022-11-29T08:08:43.565Z,101886.38
2022-11-29T08:11:12.533Z,101894.97
2022-11-29T08:13:38.997Z,101892.19
2022-11-29T08:16:05.606Z,101894.53
2022-11-29T08:18:32.060Z,101893.28
2022-11-29T08:20:58.486Z,101907.91
2022-11-29T08:23:24.957Z,101898.91
2022-11-29T08:25:58.245Z,101901.63
2022-11-29T08:28:24.695Z,101894.63
2022-11-29T08:30:51.269Z,101901.63
2022-11-29T08:33:17.740Z,101903.69
2022-11-29T08:35:44.188Z,101905.28
2022-11-29T08:38:10.702Z,101904.25
2022-11-29T08:40:37.107Z,101912.69
2022-11-29T08:43:03.607Z,101900.09
2022-11-29T08:45:30.110Z,101908.50
2022-11-29T08:47:56.610Z,101910.47
2022-11-29T08:50:23.335Z,101913.50
2022-11-29T08:53:08.253Z,101910.91
2022-11-29T08:55:38.844Z,101906.16
2022-11-29T08:58:07.830Z,101918.31
2022-11-29T09:00:34.775Z,101923.59
2022-11-29T09:03:24.729Z,101923.09
2022-11-29T09:05:51.827Z,101927.56
2022-11-29T09:08:18.961Z,101927.88
2022-11-29T09:10:46.084Z,101931.91
2022-11-29T09:13:12.603Z,101934.78
2022-11-29T09:15:41.917Z,101933.38
2022-11-29T09:18:08.408Z,101940.81
2022-11-29T09:20:35.092Z,101954.53
2022-11-29T09:23:01.764Z,101952.63
2022-11-29T09:25:29.177Z,101957.16
2022-11-29T09:27:58.429Z,101956.25
2022-11-29T09:30:25.026Z,101949.28
2022-11-29T09:32:51.563Z,101956.81
2022-11-29T09:35:18.123Z,101965.81
2022-11-29T09:37:44.625Z,101964.22
2022-11-29T09:40:27.409Z,101968.50
2022-11-29T09:43:19.165Z,101964.38
2022-11-29T09:45:49.920Z,101964.69
2022-11-29T09:48:36.936Z,101970.81
2022-11-29T09:51:25.611Z,101967.97
2022-11-29T09:54:18.385Z,101972.69
2022-11-29T09:56:50.043Z,101983.09
2022-11-29T09:59:32.526Z,101978.78
2022-11-29T10:02:21.457Z,101982.25
2022-11-29T10:04:52.192Z,101991.97
2022-11-29T10:07:29.074Z,101988.22
2022-11-29T10:10:01.815Z,101988.91
2022-11-29T10:12:52.391Z,101989.88
2022-11-29T10:15:23.907Z,101996.09
2022-11-29T10:18:19.229Z,101995.06
2022-11-29T10:20:49.651Z,101991.75
2022-11-29T10:23:24.274Z,101990.16
2022-11-29T10:25:53.544Z,101993.31
2022-11-29T10:28:24.024Z,101991.41
2022-11-29T10:30:53.599Z,101987.47
2022-11-29T10:33:32.455Z,101995.56
2022-11-29T10:36:02.431Z,101985.25
2022-11-29T10:38:31.427Z,101996.09
2022-11-29T10:41:06.932Z,101991.16
2022-11-29T10:43:34.002Z,101987.78
2022-11-29T10:46:02.413Z,101986.47
2022-11-29T10:48:33.628Z,101990.00
2022-11-29T10:51:01.490Z,101988.78
2022-11-29T10:53:32.197Z,101991.28
2022-11-29T10:56:13.968Z,101983.84
2022-11-29T10:59:03.227Z,101984.44
2022-11-29T11:01:37.505Z,101980.03
2022-11-29T11:04:08.463Z,101982.91
2022-11-29T11:06:48.361Z,101985.63
2022-11-29T11:09:33.904Z,101993.72
2022-11-29T11:12:05.700Z,101990.75
2022-11-29T11:14:37.700Z,101986.72
2022-11-29T11:17:22.283Z,101988.53
2022-11-29T11:20:20.771Z,101990.13
2022-11-29T11:23:02.578Z,101986.13
2022-11-29T11:25:32.222Z,101984.88
2022-11-29T11:28:21.429Z,101997.63
2022-11-29T11:30:54.690Z,101993.25
2022-11-29T11:33:24.426Z,101995.66
2022-11-29T11:36:09.688Z,102001.31
2022-11-29T11:38:39.502Z,102003.88
2022-11-29T11:41:11.774Z,102000.31
2022-11-29T11:43:39.563Z,102001.91
2022-11-29T11:46:08.078Z,102006.84
2022-11-29T11:48:35.453Z,102009.75
2022-11-29T11:51:02.010Z,102010.66
2022-11-29T11:53:35.718Z,102012.75
2022-11-29T11:56:12.541Z,102009.06
2022-11-29T11:58:44.406Z,102006.75
2022-11-29T12:01:13.727Z,102007.66
2022-11-29T12:03:49.365Z,102010.34
2022-11-29T12:06:27.170Z,102017.81
2022-11-29T12:08:59.294Z,102007.00
2022-11-29T12:11:27.134Z,102010.66
2022-11-29T12:13:57.178Z,102023.41
2022-11-29T12:16:33.073Z,102020.22
2022-11-29T12:19:06.474Z,102012.09
2022-11-29T12:21:40.140Z,102022.84
2022-11-29T12:24:28.988Z,102027.47
2022-11-29T12:27:00.675Z,102026.03
2022-11-29T12:29:32.916Z,102027.47
2022-11-29T12:32:11.913Z,102028.66
2022-11-29T12:35:09.042Z,102037.25
2022-11-29T12:38:00.049Z,102045.75
2022-11-29T12:41:03.759Z,102042.69
2022-11-29T12:43:49.345Z,102044.91
2022-11-29T12:46:27.688Z,102046.19
2022-11-29T12:49:18.258Z,102055.19
2022-11-29T12:52:15.840Z,102054.91
2022-11-29T12:55:30.723Z,102072.56
2022-11-29T12:57:59.836Z,102064.25
2022-11-29T13:00:32.345Z,102068.75
2022-11-29T13:03:11.455Z,102060.63
2022-11-29T13:05:53.243Z,102061.63
2022-11-29T13:08:30.094Z,102057.19
2022-11-29T13:11:20.959Z,102066.91
2022-11-29T13:14:03.793Z,102066.00
2022-11-29T13:16:56.763Z,102062.88
2022-11-29T13:19:45.538Z,102068.63
2022-11-29T13:22:21.208Z,102078.69
2022-11-29T13:24:53.450Z,102072.97
2022-11-29T13:27:27.307Z,102072.16
2022-11-29T13:29:54.503Z,102066.88
2022-11-29T13:32:39.955Z,102070.19
2022-11-29T13:35:15.305Z,102085.75
2022-11-29T13:37:55.652Z,102084.16
2022-11-29T13:40:52.100Z,102083.22
2022-11-29T13:43:39.352Z,102079.22
2022-11-29T13:46:46.691Z,102084.16
2022-11-29T13:49:22.956Z,102086.88
2022-11-29T13:52:04.558Z,102086.25
2022-11-29T13:54:33.541Z,102081.03
2022-11-29T13:57:06.782Z,102083.75
2022-11-29T13:59:36.090Z,102077.22
2022-11-29T14:02:03.232Z,102083.91
2022-11-29T14:04:32.613Z,102085.41
2022-11-29T14:07:10.464Z,102082.81
2022-11-29T14:09:44.970Z,102081.63
2022-11-29T14:12:38.282Z,102087.97
2022-11-29T14:15:19.497Z,102090.78
2022-11-29T14:17:55.894Z,102087.09
2022-11-29T14:20:22.288Z,102089.50
2022-11-29T14:23:07.383Z,102082.78
2022-11-29T14:25:53.297Z,102091.72
2022-11-29T14:28:22.845Z,102088.38
2022-11-29T14:30:54.942Z,102086.09
2022-11-29T14:34:03.548Z,102088.31
2022-11-29T14:36:30.012Z,102087.78
2022-11-29T14:39:15.444Z,102092.38
2022-11-29T14:42:14.325Z,102098.59
2022-11-29T14:44:47.154Z,102104.53
2022-11-29T14:47:34.610Z,102099.22
2022-11-29T14:50:06.665Z,102100.50
2022-11-29T14:52:49.890Z,102099.72
2022-11-29T14:55:16.394Z,102105.63
2022-11-29T14:58:01.229Z,102101.00
2022-11-29T15:00:30.519Z,102099.28
2022-11-29T15:03:05.291Z,102097.56
2022-11-29T15:05:36.892Z,102097.28
2022-11-29T15:08:37.637Z,102102.97
2022-11-29T15:11:10.136Z,102100.28
2022-11-29T15:13:46.794Z,102102.69
2022-11-29T15:16:25.006Z,102105.41
2022-11-29T15:19:29.849Z,102113.22
2022-11-29T15:22:15.304Z,102109.72
2022-11-29T15:24:52.129Z,102103.69
2022-11-29T15:27:19.321Z,102111.81
2022-11-29T15:29:49.091Z,102113.72
2022-11-29T15:32:22.579Z,102113.81
2022-11-29T15:34:51.445Z,102110.63
2022-11-29T15:37:38.848Z,102104.94
2022-11-29T15:40:19.060Z,102115.88
2022-11-29T15:42:49.556Z,102111.25
2022-11-29T15:45:28.307Z,102109.47
2022-11-29T15:47:55.576Z,102113.88
2022-11-29T15:50:33.465Z,102113.41
2022-11-29T15:53:03.823Z,102121.34
2022-11-29T15:55:30.993Z,102113.91
2022-11-29T15:58:03.882Z,102125.63
2022-11-29T16:00:33.833Z,102132.34
2022-11-29T16:03:02.467Z,102131.25
2022-11-29T16:05:35.653Z,102125.53
2022-11-29T16:08:06.998Z,102134.78
2022-11-29T16:10:43.567Z,102129.63
2022-11-29T16:13:25.348Z,102133.53
2022-11-29T16:16:04.568Z,102133.13
2022-11-29T16:18:31.394Z,102136.94
2022-11-29T16:21:02.576Z,102139.38
2022-11-29T16:23:34.020Z,102131.66
2022-11-29T16:26:02.179Z,102136.47
2022-11-29T16:28:36.461Z,102130.66
2022-11-29T16:31:04.860Z,102135.38
2022-11-29T16:33:31.851Z,102135.47
2022-11-29T16:36:35.009Z,102141.91
2022-11-29T16:39:20.152Z,102148.50
2022-11-29T16:42:25.919Z,102142.78
2022-11-29T16:45:01.870Z,102148.59
2022-11-29T16:47:46.558Z,102146.59
2022-11-29T16:50:21.583Z,102140.47
2022-11-29T16:52:53.439Z,102139.78
2022-11-29T16:55:23.002Z,102145.00
2022-11-29T16:57:49.645Z,102156.19
2022-11-29T17:00:31.982Z,102150.19
2022-11-29T17:02:59.314Z,102150.78
2022-11-29T17:05:26.326Z,102148.09
2022-11-29T17:07:53.138Z,102155.41
2022-11-29T17:10:25.180Z,102150.59
2022-11-29T17:12:52.091Z,102149.59
2022-11-29T17:15:18.611Z,102153.19
2022-11-29T17:17:45.156Z,102151.09
2022-11-29T17:20:13.378Z,102153.81
2022-11-29T17:22:40.112Z,102151.19
2022-11-29T17:25:07.248Z,102154.19
2022-11-29T17:27:33.724Z,102153.69
2022-11-29T17:30:00.186Z,102151.28
2022-11-29T17:32:27.135Z,102159.78
2022-11-29T17:34:53.793Z,102158.81
2022-11-29T17:37:20.264Z,102163.00
2022-11-29T17:39:49.064Z,102160.91
2022-11-29T17:42:15.654Z,102161.78
2022-11-29T17:44:42.288Z,102171.09
2022-11-29T17:47:08.691Z,102179.78
2022-11-29T17:49:35.169Z,102176.00
2022-11-29T17:52:01.717Z,102182.72
2022-11-29T17:54:28.268Z,102175.47
2022-11-29T17:56:55.126Z,102174.69
2022-11-29T17:59:21.531Z,102180.00
2022-11-29T18:01:48.195Z,102187.91
2022-11-29T18:04:15.173Z,102186.00
2022-11-29T18:06:41.943Z,102192.50
2022-11-29T18:09:10.530Z,102187.41
2022-11-29T18:11:48.159Z,102194.72
2022-11-29T18:14:17.992Z,102192.06
2022-11-29T18:16:47.417Z,102203.69
2022-11-29T18:19:17.563Z,102193.94
2022-11-29T18:21:44.715Z,102197.47
2022-11-29T18:24:11.559Z,102194.66
2022-11-29T18:26:38.725Z,102204.94
2022-11-29T18:29:06.478Z,102219.41
2022-11-29T18:31:35.323Z,102216.81
2022-11-29T18:34:06.944Z,102218.56
2022-11-29T18:36:35.920Z,102212.63
2022-11-29T18:39:11.619Z,102222.72
2022-11-29T18:41:38.332Z,102221.81
2022-11-29T18:44:07.995Z,102217.75
2022-11-29T18:46:37.292Z,102223.88
2022-11-29T18:49:06.540Z,102224.09
2022-11-29T18:51:34.210Z,102221.91
2022-11-29T18:54:01.492Z,102224.38
2022-11-29T18:56:30.592Z,102229.22
2022-11-29T18:58:59.621Z,102224.38
2022-11-29T19:01:32.218Z,102229.06
2022-11-29T19:04:00.465Z,102227.47
2022-11-29T19:06:35.456Z,102223.38
2022-11-29T19:09:06.718Z,102233.00
2022-11-29T19:11:34.355Z,102229.78
2022-11-29T19:14:03.938Z,102232.22
2022-11-29T19:16:32.587Z,102231.97
2022-11-29T19:19:00.579Z,102236.59
2022-11-29T19:21:28.759Z,102239.53
2022-11-29T19:23:57.765Z,102244.53
2022-11-29T19:26:26.686Z,102242.06
2022-11-29T19:28:54.056Z,102240.88
2022-11-29T19:31:26.969Z,102246.50
2022-11-29T19:33:54.500Z,102246.50
2022-11-29T19:36:26.321Z,102247.06
2022-11-29T19:38:54.093Z,102244.16
2022-11-29T19:41:23.033Z,102242.63
2022-11-29T19:43:50.098Z,102236.53
2022-11-29T19:46:20.012Z,102242.13
2022-11-29T19:48:47.659Z,102242.22
2022-11-29T19:51:17.511Z,102249.59
2022-11-29T19:53:45.066Z,102245.34
2022-11-29T19:56:14.233Z,102248.03
2022-11-29T19:58:40.997Z,102246.94
2022-11-29T20:01:10.551Z,102252.94
2022-11-29T20:03:37.560Z,102255.94
2022-11-29T20:06:04.503Z,102251.34
2022-11-29T20:08:31.599Z,102255.19
2022-11-29T20:11:13.664Z,102255.44
2022-11-29T20:13:41.898Z,102246.94
2022-11-29T20:16:14.570Z,102257.09
2022-11-29T20:18:47.259Z,102261.94
2022-11-29T20:21:20.519Z,102261.78
2022-11-29T20:23:47.231Z,102263.69
2022-11-29T20:26:19.976Z,102268.56
2022-11-29T20:28:47.400Z,102269.34
2022-11-29T20:31:21.383Z,102263.41
2022-11-29T20:33:48.962Z,102263.44
2022-11-29T20:36:27.563Z,102264.56
2022-11-29T20:39:23.948Z,102271.25
2022-11-29T20:42:05.834Z,102270.91
2022-11-29T20:44:54.028Z,102272.81
2022-11-29T20:47:24.186Z,102267.69
2022-11-29T20:49:51.053Z,102280.41
2022-11-29T20:52:45.428Z,102272.88
2022-11-29T20:55:12.018Z,102277.19
2022-11-29T20:57:38.475Z,102281.25
2022-11-29T21:00:11.240Z,102272.44
2022-11-29T21:02:38.498Z,102274.06
2022-11-29T21:05:05.839Z,102277.25
2022-11-29T21:07:32.349Z,102276.66
2022-11-29T21:10:01.375Z,102274.72
2022-11-29T21:12:29.379Z,102285.97
2022-11-29T21:14:56.065Z,102283.25
2022-11-29T21:17:22.886Z,102289.16
2022-11-29T21:19:49.663Z,102287.25
2022-11-29T21:22:37.516Z,102295.38
2022-11-29T21:25:13.978Z,102299.47
2022-11-29T21:27:40.770Z,102303.84
2022-11-29T21:30:18.415Z,102304.63
2022-11-29T21:32:45.852Z,102298.88
2022-11-29T21:35:13.185Z,102301.28
2022-11-29T21:37:39.972Z,102300.97
2022-11-29T21:40:07.651Z,102294.28
2022-11-29T21:42:34.071Z,102301.06
2022-11-29T21:45:00.469Z,102303.19
2022-11-29T21:47:26.924Z,102307.44
2022-11-29T21:49:54.626Z,102301.72
2022-11-29T21:52:22.974Z,102306.31
2022-11-29T21:54:49.918Z,102304.94
2022-11-29T21:57:16.379Z,102300.56
2022-11-29T21:59:42.851Z,102303.94
2022-11-29T22:02:09.349Z,102306.13
2022-11-29T22:04:35.882Z,102301.81
2022-11-29T22:07:02.352Z,102295.22
2022-11-29T22:09:28.865Z,102314.72
2022-11-29T22:11:55.308Z,102309.03
2022-11-29T22:14:21.741Z,102307.56
2022-11-29T22:16:51.140Z,102309.47
2022-11-29T22:19:20.188Z,102318.09
2022-11-29T22:21:49.634Z,102310.78
2022-11-29T22:24:18.639Z,102311.59
2022-11-29T22:26:46.214Z,102310.63
2022-11-29T22:29:14.206Z,102317.13
2022-11-29T22:31:42.296Z,102315.88
2022-11-29T22:34:08.998Z,102319.88
2022-11-29T22:36:36.322Z,102317.13
2022-11-29T22:39:03.852Z,102311.91
2022-11-29T22:41:31.684Z,102313.34
2022-11-29T22:43:58.174Z,102313.13
2022-11-29T22:46:26.733Z,102315.03
2022-11-29T22:48:55.583Z,102321.16
2022-11-29T22:51:24.686Z,102310.59
2022-11-29T22:53:53.942Z,102321.41
2022-11-29T22:56:21.766Z,102316.50
2022-11-29T22:58:48.602Z,102324.13
2022-11-29T23:01:18.226Z,102327.44
2022-11-29T23:03:48.351Z,102330.75
2022-11-29T23:06:18.645Z,102339.91
2022-11-29T23:08:47.136Z,102342.88
2022-11-29T23:11:16.704Z,102339.91
2022-11-29T23:13:44.237Z,102344.19
2022-11-29T23:16:16.179Z,102334.94
2022-11-29T23:18:45.591Z,102344.69
2022-11-29T23:21:17.783Z,102336.59
2022-11-29T23:23:44.479Z,102345.44
2022-11-29T23:26:22.564Z,102343.25
2022-11-29T23:28:49.236Z,102340.78
2022-11-29T23:31:17.601Z,102334.25
2022-11-29T23:33:44.494Z,102333.66
2022-11-29T23:36:12.210Z,102336.06
2022-11-29T23:38:38.924Z,102335.78
2022-11-29T23:41:06.775Z,102340.91
2022-11-29T23:43:35.833Z,102341.63
2022-11-29T23:46:14.452Z,102344.75
2022-11-29T23:48:41.643Z,102339.66
2022-11-29T23:51:08.717Z,102352.22
2022-11-29T23:53:35.177Z,102348.44
2022-11-29T23:56:04.150Z,102348.44
2022-11-29T23:58:32.136Z,102344.84
